sensor_id;sensor_type;location;lat;lon;timestamp;pressure;altitude;pressure_sealevel;temperature
75658;BMP280;64255;49.892;17.884;2023-03-14T00:01:45;97098.66;;;11.25
75658;BMP280;64255;49.892;17.884;2023-03-14T00:04:13;97099.91;;;10.93
75658;BMP280;64255;49.892;17.884;2023-03-14T00:06:40;97111.22;;;11.05
75658;BMP280;64255;49.892;17.884;2023-03-14T00:09:08;97115.88;;;10.74
75658;BMP280;64255;49.892;17.884;2023-03-14T00:11:35;97116.00;;;10.51
75658;BMP280;64255;49.892;17.884;2023-03-14T00:14:03;97111.75;;;11.03
75658;BMP280;64255;49.892;17.884;2023-03-14T00:16:31;97108.47;;;10.86
75658;BMP280;64255;49.892;17.884;2023-03-14T00:18:59;97086.00;;;10.64
75658;BMP280;64255;49.892;17.884;2023-03-14T00:21:26;97075.81;;;10.93
75658;BMP280;64255;49.892;17.884;2023-03-14T00:23:54;97081.16;;;10.93
75658;BMP280;64255;49.892;17.884;2023-03-14T00:26:21;97070.00;;;10.89
75658;BMP280;64255;49.892;17.884;2023-03-14T00:28:53;97067.19;;;10.76
75658;BMP280;64255;49.892;17.884;2023-03-14T00:31:22;97061.34;;;10.77
75658;BMP280;64255;49.892;17.884;2023-03-14T00:33:53;97058.63;;;11.08
75658;BMP280;64255;49.892;17.884;2023-03-14T00:36:21;97052.06;;;10.48
75658;BMP280;64255;49.892;17.884;2023-03-14T00:38:51;97062.81;;;10.42
75658;BMP280;64255;49.892;17.884;2023-03-14T00:41:21;97049.09;;;10.21
75658;BMP280;64255;49.892;17.884;2023-03-14T00:43:50;97045.22;;;10.16
75658;BMP280;64255;49.892;17.884;2023-03-14T00:46:18;97035.63;;;9.96
75658;BMP280;64255;49.892;17.884;2023-03-14T00:48:47;97030.34;;;10.27
75658;BMP280;64255;49.892;17.884;2023-03-14T00:51:15;97029.56;;;10.32
75658;BMP280;64255;49.892;17.884;2023-03-14T00:53:43;97020.16;;;10.19
75658;BMP280;64255;49.892;17.884;2023-03-14T00:56:12;96997.78;;;10.23
75658;BMP280;64255;49.892;17.884;2023-03-14T00:58:40;96993.38;;;10.25
75658;BMP280;64255;49.892;17.884;2023-03-14T01:01:11;96976.31;;;10.89
75658;BMP280;64255;49.892;17.884;2023-03-14T01:03:40;96980.09;;;10.99
75658;BMP280;64255;49.892;17.884;2023-03-14T01:06:19;96957.03;;;11.15
75658;BMP280;64255;49.892;17.884;2023-03-14T01:08:46;96976.63;;;11.04
75658;BMP280;64255;49.892;17.884;2023-03-14T01:11:25;96960.38;;;11.21
75658;BMP280;64255;49.892;17.884;2023-03-14T01:13:53;96972.66;;;11.11
75658;BMP280;64255;49.892;17.884;2023-03-14T01:16:24;96959.84;;;11.04
75658;BMP280;64255;49.892;17.884;2023-03-14T01:18:52;96975.38;;;11.05
75658;BMP280;64255;49.892;17.884;2023-03-14T01:21:27;96975.16;;;10.84
75658;BMP280;64255;49.892;17.884;2023-03-14T01:23:57;96971.84;;;10.73
75658;BMP280;64255;49.892;17.884;2023-03-14T01:26:29;96984.34;;;11.14
75658;BMP280;64255;49.892;17.884;2023-03-14T01:28:57;96988.53;;;10.84
75658;BMP280;64255;49.892;17.884;2023-03-14T01:31:26;97000.63;;;11.16
75658;BMP280;64255;49.892;17.884;2023-03-14T01:33:54;96988.63;;;11.23
75658;BMP280;64255;49.892;17.884;2023-03-14T01:36:21;96986.31;;;11.32
75658;BMP280;64255;49.892;17.884;2023-03-14T01:38:48;97001.09;;;11.14
75658;BMP280;64255;49.892;17.884;2023-03-14T01:41:24;96989.34;;;11.23
75658;BMP280;64255;49.892;17.884;2023-03-14T01:43:52;96975.44;;;11.25
75658;BMP280;64255;49.892;17.884;2023-03-14T01:46:30;96980.66;;;11.17
75658;BMP280;64255;49.892;17.884;2023-03-14T01:49:39;96981.56;;;11.00
75658;BMP280;64255;49.892;17.884;2023-03-14T01:52:13;96981.44;;;10.87
75658;BMP280;64255;49.892;17.884;2023-03-14T01:54:58;96986.56;;;10.85
75658;BMP280;64255;49.892;17.884;2023-03-14T01:57:39;96982.19;;;11.07
75658;BMP280;64255;49.892;17.884;2023-03-14T02:00:15;96980.94;;;11.32
75658;BMP280;64255;49.892;17.884;2023-03-14T02:02:50;96980.00;;;10.86
75658;BMP280;64255;49.892;17.884;2023-03-14T02:05:27;97003.06;;;10.89
75658;BMP280;64255;49.892;17.884;2023-03-14T02:07:59;97009.13;;;10.65
75658;BMP280;64255;49.892;17.884;2023-03-14T02:10:35;97006.38;;;10.70
75658;BMP280;64255;49.892;17.884;2023-03-14T02:13:05;97020.75;;;10.73
75658;BMP280;64255;49.892;17.884;2023-03-14T02:15:34;97018.34;;;10.69
75658;BMP280;64255;49.892;17.884;2023-03-14T02:18:04;97014.72;;;10.31
75658;BMP280;64255;49.892;17.884;2023-03-14T02:21:14;97012.31;;;9.91
75658;BMP280;64255;49.892;17.884;2023-03-14T02:24:24;97015.91;;;9.99
75658;BMP280;64255;49.892;17.884;2023-03-14T02:27:24;97000.31;;;10.03
75658;BMP280;64255;49.892;17.884;2023-03-14T02:30:10;96987.16;;;10.11
75658;BMP280;64255;49.892;17.884;2023-03-14T02:32:43;96980.75;;;9.90
75658;BMP280;64255;49.892;17.884;2023-03-14T02:35:18;96988.66;;;10.43
75658;BMP280;64255;49.892;17.884;2023-03-14T02:38:23;96974.50;;;10.12
75658;BMP280;64255;49.892;17.884;2023-03-14T02:40:51;96986.66;;;10.13
75658;BMP280;64255;49.892;17.884;2023-03-14T02:43:19;96998.25;;;9.91
75658;BMP280;64255;49.892;17.884;2023-03-14T02:45:49;97003.31;;;10.30
75658;BMP280;64255;49.892;17.884;2023-03-14T02:48:31;97020.03;;;10.36
75658;BMP280;64255;49.892;17.884;2023-03-14T02:51:02;97018.91;;;10.26
75658;BMP280;64255;49.892;17.884;2023-03-14T02:53:35;97016.19;;;10.62
75658;BMP280;64255;49.892;17.884;2023-03-14T02:56:04;97013.19;;;10.71
75658;BMP280;64255;49.892;17.884;2023-03-14T02:58:32;97026.63;;;10.35
75658;BMP280;64255;49.892;17.884;2023-03-14T03:01:00;97033.41;;;9.95
75658;BMP280;64255;49.892;17.884;2023-03-14T03:03:27;97043.84;;;9.98
75658;BMP280;64255;49.892;17.884;2023-03-14T03:05:56;97052.97;;;10.26
75658;BMP280;64255;49.892;17.884;2023-03-14T03:08:27;97046.59;;;10.29
75658;BMP280;64255;49.892;17.884;2023-03-14T03:10:56;97050.66;;;10.71
75658;BMP280;64255;49.892;17.884;2023-03-14T03:13:24;97049.78;;;10.27
75658;BMP280;64255;49.892;17.884;2023-03-14T03:15:51;97044.50;;;10.16
75658;BMP280;64255;49.892;17.884;2023-03-14T03:18:19;97047.13;;;10.27
75658;BMP280;64255;49.892;17.884;2023-03-14T03:20:46;97042.34;;;10.50
75658;BMP280;64255;49.892;17.884;2023-03-14T03:23:14;97039.06;;;10.63
75658;BMP280;64255;49.892;17.884;2023-03-14T03:25:41;97034.13;;;10.73
75658;BMP280;64255;49.892;17.884;2023-03-14T03:28:07;97016.16;;;10.68
75658;BMP280;64255;49.892;17.884;2023-03-14T03:30:41;97006.75;;;10.61
75658;BMP280;64255;49.892;17.884;2023-03-14T03:33:11;97000.88;;;10.63
75658;BMP280;64255;49.892;17.884;2023-03-14T03:35:47;97004.31;;;10.58
75658;BMP280;64255;49.892;17.884;2023-03-14T03:38:16;96992.91;;;10.57
75658;BMP280;64255;49.892;17.884;2023-03-14T03:40:44;96976.38;;;10.53
75658;BMP280;64255;49.892;17.884;2023-03-14T03:43:11;96963.25;;;10.55
75658;BMP280;64255;49.892;17.884;2023-03-14T03:45:39;96958.56;;;10.31
75658;BMP280;64255;49.892;17.884;2023-03-14T03:48:07;96951.28;;;10.31
75658;BMP280;64255;49.892;17.884;2023-03-14T03:50:34;96934.44;;;10.36
75658;BMP280;64255;49.892;17.884;2023-03-14T03:53:02;96921.44;;;10.21
75658;BMP280;64255;49.892;17.884;2023-03-14T03:55:29;96918.53;;;10.19
75658;BMP280;64255;49.892;17.884;2023-03-14T03:57:57;96919.16;;;10.07
75658;BMP280;64255;49.892;17.884;2023-03-14T04:00:24;96919.72;;;10.24
75658;BMP280;64255;49.892;17.884;2023-03-14T04:02:52;96921.75;;;10.18
75658;BMP280;64255;49.892;17.884;2023-03-14T04:05:19;96918.34;;;10.12
75658;BMP280;64255;49.892;17.884;2023-03-14T04:07:47;96932.47;;;10.12
75658;BMP280;64255;49.892;17.884;2023-03-14T04:10:14;96923.13;;;9.94
75658;BMP280;64255;49.892;17.884;2023-03-14T04:12:42;96914.75;;;10.09
75658;BMP280;64255;49.892;17.884;2023-03-14T04:15:10;96932.22;;;10.10
75658;BMP280;64255;49.892;17.884;2023-03-14T04:17:37;96907.34;;;10.27
75658;BMP280;64255;49.892;17.884;2023-03-14T04:20:05;96915.66;;;10.17
75658;BMP280;64255;49.892;17.884;2023-03-14T04:22:32;96917.00;;;9.99
75658;BMP280;64255;49.892;17.884;2023-03-14T04:25:00;96924.19;;;10.16
75658;BMP280;64255;49.892;17.884;2023-03-14T04:27:27;96938.09;;;10.09
75658;BMP280;64255;49.892;17.884;2023-03-14T04:29:54;96967.81;;;9.94
75658;BMP280;64255;49.892;17.884;2023-03-14T04:32:21;96961.84;;;10.18
75658;BMP280;64255;49.892;17.884;2023-03-14T04:34:48;96956.00;;;9.78
75658;BMP280;64255;49.892;17.884;2023-03-14T04:37:16;96950.59;;;9.89
75658;BMP280;64255;49.892;17.884;2023-03-14T04:39:43;96936.84;;;10.10
75658;BMP280;64255;49.892;17.884;2023-03-14T04:42:11;96942.06;;;9.96
75658;BMP280;64255;49.892;17.884;2023-03-14T04:44:37;96926.84;;;9.80
75658;BMP280;64255;49.892;17.884;2023-03-14T04:47:05;96935.91;;;9.65
75658;BMP280;64255;49.892;17.884;2023-03-14T04:49:32;96935.06;;;9.87
75658;BMP280;64255;49.892;17.884;2023-03-14T04:51:59;96941.88;;;9.41
75658;BMP280;64255;49.892;17.884;2023-03-14T04:54:26;96950.72;;;9.66
75658;BMP280;64255;49.892;17.884;2023-03-14T04:56:54;96942.09;;;9.37
75658;BMP280;64255;49.892;17.884;2023-03-14T04:59:21;96939.31;;;9.13
75658;BMP280;64255;49.892;17.884;2023-03-14T05:01:48;96943.41;;;9.25
75658;BMP280;64255;49.892;17.884;2023-03-14T05:04:15;96944.41;;;9.16
75658;BMP280;64255;49.892;17.884;2023-03-14T05:06:43;96939.03;;;9.22
75658;BMP280;64255;49.892;17.884;2023-03-14T05:09:10;96916.50;;;9.17
75658;BMP280;64255;49.892;17.884;2023-03-14T05:11:37;96922.13;;;9.50
75658;BMP280;64255;49.892;17.884;2023-03-14T05:14:04;96901.03;;;9.46
75658;BMP280;64255;49.892;17.884;2023-03-14T05:16:32;96901.16;;;9.23
75658;BMP280;64255;49.892;17.884;2023-03-14T05:18:59;96890.94;;;9.28
75658;BMP280;64255;49.892;17.884;2023-03-14T05:21:27;96888.84;;;9.03
75658;BMP280;64255;49.892;17.884;2023-03-14T05:23:54;96887.63;;;9.04
75658;BMP280;64255;49.892;17.884;2023-03-14T05:26:22;96889.19;;;8.71
75658;BMP280;64255;49.892;17.884;2023-03-14T05:28:50;96888.94;;;8.69
75658;BMP280;64255;49.892;17.884;2023-03-14T05:31:17;96878.31;;;8.52
75658;BMP280;64255;49.892;17.884;2023-03-14T05:33:44;96875.66;;;8.35
75658;BMP280;64255;49.892;17.884;2023-03-14T05:36:12;96882.63;;;8.78
75658;BMP280;64255;49.892;17.884;2023-03-14T05:38:39;96880.25;;;8.57
75658;BMP280;64255;49.892;17.884;2023-03-14T05:41:07;96876.63;;;8.38
75658;BMP280;64255;49.892;17.884;2023-03-14T05:43:34;96870.09;;;8.28
75658;BMP280;64255;49.892;17.884;2023-03-14T05:46:02;96877.78;;;8.65
75658;BMP280;64255;49.892;17.884;2023-03-14T05:48:29;96876.59;;;8.61
75658;BMP280;64255;49.892;17.884;2023-03-14T05:50:58;96869.78;;;8.82
75658;BMP280;64255;49.892;17.884;2023-03-14T05:53:25;96853.03;;;8.82
75658;BMP280;64255;49.892;17.884;2023-03-14T05:55:53;96855.06;;;8.53
75658;BMP280;64255;49.892;17.884;2023-03-14T05:58:21;96826.78;;;8.97
75658;BMP280;64255;49.892;17.884;2023-03-14T06:00:50;96836.47;;;9.00
75658;BMP280;64255;49.892;17.884;2023-03-14T06:03:17;96823.75;;;9.18
75658;BMP280;64255;49.892;17.884;2023-03-14T06:05:45;96826.59;;;9.31
75658;BMP280;64255;49.892;17.884;2023-03-14T06:08:12;96836.91;;;9.10
75658;BMP280;64255;49.892;17.884;2023-03-14T06:10:40;96832.25;;;9.22
75658;BMP280;64255;49.892;17.884;2023-03-14T06:13:07;96824.38;;;9.41
75658;BMP280;64255;49.892;17.884;2023-03-14T06:15:34;96802.56;;;9.31
75658;BMP280;64255;49.892;17.884;2023-03-14T06:18:02;96802.03;;;9.38
75658;BMP280;64255;49.892;17.884;2023-03-14T06:20:30;96793.41;;;9.57
75658;BMP280;64255;49.892;17.884;2023-03-14T06:22:57;96799.44;;;9.63
75658;BMP280;64255;49.892;17.884;2023-03-14T06:25:24;96796.97;;;9.65
75658;BMP280;64255;49.892;17.884;2023-03-14T06:27:51;96811.47;;;9.76
75658;BMP280;64255;49.892;17.884;2023-03-14T06:30:19;96814.03;;;9.62
75658;BMP280;64255;49.892;17.884;2023-03-14T06:32:46;96814.63;;;9.80
75658;BMP280;64255;49.892;17.884;2023-03-14T06:35:13;96824.03;;;9.86
75658;BMP280;64255;49.892;17.884;2023-03-14T06:37:41;96824.00;;;9.92
75658;BMP280;64255;49.892;17.884;2023-03-14T06:40:10;96829.25;;;10.03
75658;BMP280;64255;49.892;17.884;2023-03-14T06:42:37;96831.91;;;10.03
75658;BMP280;64255;49.892;17.884;2023-03-14T06:45:05;96841.16;;;10.02
75658;BMP280;64255;49.892;17.884;2023-03-14T06:47:32;96833.53;;;10.12
75658;BMP280;64255;49.892;17.884;2023-03-14T06:50:00;96837.88;;;10.15
75658;BMP280;64255;49.892;17.884;2023-03-14T06:52:27;96838.38;;;10.14
75658;BMP280;64255;49.892;17.884;2023-03-14T06:54:54;96847.53;;;10.24
75658;BMP280;64255;49.892;17.884;2023-03-14T06:57:22;96830.28;;;10.25
75658;BMP280;64255;49.892;17.884;2023-03-14T06:59:49;96840.00;;;10.23
75658;BMP280;64255;49.892;17.884;2023-03-14T07:02:17;96844.38;;;10.26
75658;BMP280;64255;49.892;17.884;2023-03-14T07:04:44;96850.63;;;10.34
75658;BMP280;64255;49.892;17.884;2023-03-14T07:07:12;96865.88;;;10.39
75658;BMP280;64255;49.892;17.884;2023-03-14T07:09:39;96863.41;;;10.41
75658;BMP280;64255;49.892;17.884;2023-03-14T07:12:07;96862.38;;;10.50
75658;BMP280;64255;49.892;17.884;2023-03-14T07:14:34;96862.06;;;10.53
75658;BMP280;64255;49.892;17.884;2023-03-14T07:17:02;96862.63;;;10.71
75658;BMP280;64255;49.892;17.884;2023-03-14T07:19:28;96861.72;;;11.26
75658;BMP280;64255;49.892;17.884;2023-03-14T07:21:55;96840.16;;;11.18
75658;BMP280;64255;49.892;17.884;2023-03-14T07:24:23;96848.97;;;11.13
75658;BMP280;64255;49.892;17.884;2023-03-14T07:26:50;96852.16;;;11.30
75658;BMP280;64255;49.892;17.884;2023-03-14T07:29:17;96858.47;;;11.65
75658;BMP280;64255;49.892;17.884;2023-03-14T07:31:45;96853.53;;;12.02
75658;BMP280;64255;49.892;17.884;2023-03-14T07:34:12;96861.69;;;12.50
75658;BMP280;64255;49.892;17.884;2023-03-14T07:36:39;96852.72;;;12.61
75658;BMP280;64255;49.892;17.884;2023-03-14T07:39:07;96860.66;;;12.53
75658;BMP280;64255;49.892;17.884;2023-03-14T07:41:34;96864.78;;;12.81
75658;BMP280;64255;49.892;17.884;2023-03-14T07:44:02;96861.81;;;12.17
75658;BMP280;64255;49.892;17.884;2023-03-14T07:46:29;96872.81;;;12.27
75658;BMP280;64255;49.892;17.884;2023-03-14T07:48:57;96866.09;;;12.07
75658;BMP280;64255;49.892;17.884;2023-03-14T07:51:24;96864.44;;;12.04
75658;BMP280;64255;49.892;17.884;2023-03-14T07:53:52;96853.50;;;11.88
75658;BMP280;64255;49.892;17.884;2023-03-14T07:56:18;96853.34;;;11.81
75658;BMP280;64255;49.892;17.884;2023-03-14T07:58:46;96856.78;;;11.81
75658;BMP280;64255;49.892;17.884;2023-03-14T08:01:14;96865.34;;;11.80
75658;BMP280;64255;49.892;17.884;2023-03-14T08:03:42;96864.28;;;11.83
75658;BMP280;64255;49.892;17.884;2023-03-14T08:06:08;96848.44;;;11.85
75658;BMP280;64255;49.892;17.884;2023-03-14T08:08:36;96860.72;;;11.80
75658;BMP280;64255;49.892;17.884;2023-03-14T08:11:05;96871.81;;;11.84
75658;BMP280;64255;49.892;17.884;2023-03-14T08:13:33;96874.94;;;11.88
75658;BMP280;64255;49.892;17.884;2023-03-14T08:16:00;96867.91;;;11.85
75658;BMP280;64255;49.892;17.884;2023-03-14T08:18:27;96878.63;;;11.85
75658;BMP280;64255;49.892;17.884;2023-03-14T08:20:55;96893.56;;;11.81
75658;BMP280;64255;49.892;17.884;2023-03-14T08:23:22;96886.72;;;11.99
75658;BMP280;64255;49.892;17.884;2023-03-14T08:25:51;96911.72;;;13.14
75658;BMP280;64255;49.892;17.884;2023-03-14T08:28:19;96917.66;;;12.46
75658;BMP280;64255;49.892;17.884;2023-03-14T08:30:46;96939.09;;;12.32
75658;BMP280;64255;49.892;17.884;2023-03-14T08:33:13;96920.75;;;12.04
75658;BMP280;64255;49.892;17.884;2023-03-14T08:35:42;96926.44;;;12.00
75658;BMP280;64255;49.892;17.884;2023-03-14T08:38:09;96934.41;;;12.06
75658;BMP280;64255;49.892;17.884;2023-03-14T08:40:36;96942.34;;;12.12
75658;BMP280;64255;49.892;17.884;2023-03-14T08:43:03;96962.63;;;12.07
75658;BMP280;64255;49.892;17.884;2023-03-14T08:45:31;96954.59;;;12.07
75658;BMP280;64255;49.892;17.884;2023-03-14T08:47:58;96942.78;;;11.97
75658;BMP280;64255;49.892;17.884;2023-03-14T08:50:26;96952.91;;;11.91
75658;BMP280;64255;49.892;17.884;2023-03-14T08:52:53;96940.66;;;11.95
75658;BMP280;64255;49.892;17.884;2023-03-14T08:55:20;96938.19;;;11.97
75658;BMP280;64255;49.892;17.884;2023-03-14T08:57:48;96911.41;;;12.11
75658;BMP280;64255;49.892;17.884;2023-03-14T09:00:16;96912.38;;;12.40
75658;BMP280;64255;49.892;17.884;2023-03-14T09:02:43;96928.66;;;12.55
75658;BMP280;64255;49.892;17.884;2023-03-14T09:05:12;96940.56;;;12.74
75658;BMP280;64255;49.892;17.884;2023-03-14T09:07:40;96928.25;;;12.38
75658;BMP280;64255;49.892;17.884;2023-03-14T09:10:09;96925.13;;;12.34
75658;BMP280;64255;49.892;17.884;2023-03-14T09:12:37;96918.56;;;12.48
75658;BMP280;64255;49.892;17.884;2023-03-14T09:15:05;96922.16;;;12.91
75658;BMP280;64255;49.892;17.884;2023-03-14T09:17:32;96925.50;;;12.70
75658;BMP280;64255;49.892;17.884;2023-03-14T09:20:00;96928.50;;;12.53
75658;BMP280;64255;49.892;17.884;2023-03-14T09:22:27;96934.16;;;12.36
75658;BMP280;64255;49.892;17.884;2023-03-14T09:24:55;96929.41;;;12.43
75658;BMP280;64255;49.892;17.884;2023-03-14T09:27:22;96932.06;;;12.29
75658;BMP280;64255;49.892;17.884;2023-03-14T09:29:50;96941.97;;;12.34
75658;BMP280;64255;49.892;17.884;2023-03-14T09:32:17;96959.41;;;12.28
75658;BMP280;64255;49.892;17.884;2023-03-14T09:34:44;96969.00;;;12.23
75658;BMP280;64255;49.892;17.884;2023-03-14T09:37:12;96964.84;;;12.09
75658;BMP280;64255;49.892;17.884;2023-03-14T09:39:39;96965.41;;;12.01
75658;BMP280;64255;49.892;17.884;2023-03-14T09:42:14;96973.59;;;11.90
75658;BMP280;64255;49.892;17.884;2023-03-14T09:44:57;96974.66;;;11.87
75658;BMP280;64255;49.892;17.884;2023-03-14T09:47:27;96974.72;;;11.81
75658;BMP280;64255;49.892;17.884;2023-03-14T09:49:54;96980.59;;;11.80
75658;BMP280;64255;49.892;17.884;2023-03-14T09:52:31;96984.50;;;11.79
75658;BMP280;64255;49.892;17.884;2023-03-14T09:55:06;96990.16;;;11.75
75658;BMP280;64255;49.892;17.884;2023-03-14T09:57:36;96969.09;;;11.66
75658;BMP280;64255;49.892;17.884;2023-03-14T10:00:20;96998.63;;;11.60
75658;BMP280;64255;49.892;17.884;2023-03-14T10:02:55;96989.22;;;11.53
75658;BMP280;64255;49.892;17.884;2023-03-14T10:05:25;96989.53;;;11.50
75658;BMP280;64255;49.892;17.884;2023-03-14T10:07:53;96992.56;;;11.41
75658;BMP280;64255;49.892;17.884;2023-03-14T10:10:24;96993.56;;;11.37
75658;BMP280;64255;49.892;17.884;2023-03-14T10:15:41;97000.06;;;11.23
75658;BMP280;64255;49.892;17.884;2023-03-14T10:18:14;97008.16;;;11.17
75658;BMP280;64255;49.892;17.884;2023-03-14T10:20:48;97022.06;;;11.16
75658;BMP280;64255;49.892;17.884;2023-03-14T10:25:46;97005.31;;;11.10
75658;BMP280;64255;49.892;17.884;2023-03-14T10:31:05;97007.75;;;11.08
75658;BMP280;64255;49.892;17.884;2023-03-14T10:33:36;97011.19;;;11.08
75658;BMP280;64255;49.892;17.884;2023-03-14T10:36:23;97015.34;;;11.03
75658;BMP280;64255;49.892;17.884;2023-03-14T10:39:26;96995.38;;;11.04
75658;BMP280;64255;49.892;17.884;2023-03-14T10:42:04;97001.09;;;11.14
75658;BMP280;64255;49.892;17.884;2023-03-14T10:44:34;96998.75;;;11.11
75658;BMP280;64255;49.892;17.884;2023-03-14T10:47:04;96991.06;;;11.20
75658;BMP280;64255;49.892;17.884;2023-03-14T10:49:36;96984.75;;;11.18
75658;BMP280;64255;49.892;17.884;2023-03-14T10:52:26;96989.00;;;11.08
75658;BMP280;64255;49.892;17.884;2023-03-14T10:54:59;96980.97;;;11.08
75658;BMP280;64255;49.892;17.884;2023-03-14T10:57:27;96978.91;;;11.19
75658;BMP280;64255;49.892;17.884;2023-03-14T10:59:56;96979.34;;;11.24
75658;BMP280;64255;49.892;17.884;2023-03-14T11:02:55;96984.97;;;11.20
75658;BMP280;64255;49.892;17.884;2023-03-14T11:11:21;97002.56;;;10.91
75658;BMP280;64255;49.892;17.884;2023-03-14T11:17:46;97006.38;;;11.01
75658;BMP280;64255;49.892;17.884;2023-03-14T11:20:25;97000.94;;;11.07
75658;BMP280;64255;49.892;17.884;2023-03-14T11:23:16;96992.00;;;11.23
75658;BMP280;64255;49.892;17.884;2023-03-14T11:26:39;97003.38;;;11.10
75658;BMP280;64255;49.892;17.884;2023-03-14T11:32:03;97005.19;;;10.96
75658;BMP280;64255;49.892;17.884;2023-03-14T11:34:54;97009.88;;;10.90
75658;BMP280;64255;49.892;17.884;2023-03-14T11:37:27;97010.66;;;10.85
75658;BMP280;64255;49.892;17.884;2023-03-14T11:40:23;97007.38;;;10.98
75658;BMP280;64255;49.892;17.884;2023-03-14T11:43:09;96997.84;;;11.02
75658;BMP280;64255;49.892;17.884;2023-03-14T11:45:42;96983.72;;;11.02
75658;BMP280;64255;49.892;17.884;2023-03-14T11:51:35;96976.72;;;10.99
75658;BMP280;64255;49.892;17.884;2023-03-14T11:56:53;96951.97;;;11.12
75658;BMP280;64255;49.892;17.884;2023-03-14T11:59:45;96956.31;;;11.15
75658;BMP280;64255;49.892;17.884;2023-03-14T12:02:53;96951.50;;;11.32
75658;BMP280;64255;49.892;17.884;2023-03-14T12:10:48;96950.09;;;11.45
75658;BMP280;64255;49.892;17.884;2023-03-14T12:13:18;96948.25;;;11.40
75658;BMP280;64255;49.892;17.884;2023-03-14T12:16:03;96945.06;;;11.41
75658;BMP280;64255;49.892;17.884;2023-03-14T12:18:38;96957.59;;;11.33
75658;BMP280;64255;49.892;17.884;2023-03-14T12:21:12;96955.16;;;11.29
75658;BMP280;64255;49.892;17.884;2023-03-14T12:23:55;96952.22;;;11.33
75658;BMP280;64255;49.892;17.884;2023-03-14T12:26:28;96952.31;;;11.46
75658;BMP280;64255;49.892;17.884;2023-03-14T12:29:16;96951.72;;;11.53
75658;BMP280;64255;49.892;17.884;2023-03-14T12:31:48;96950.53;;;11.68
75658;BMP280;64255;49.892;17.884;2023-03-14T12:39:35;96944.66;;;11.88
75658;BMP280;64255;49.892;17.884;2023-03-14T12:42:24;96956.66;;;11.82
75658;BMP280;64255;49.892;17.884;2023-03-14T12:45:23;96957.84;;;11.67
75658;BMP280;64255;49.892;17.884;2023-03-14T12:50:55;96957.06;;;11.73
75658;BMP280;64255;49.892;17.884;2023-03-14T12:59:30;96914.75;;;11.98
75658;BMP280;64255;49.892;17.884;2023-03-14T13:05:02;96914.97;;;12.00
75658;BMP280;64255;49.892;17.884;2023-03-14T13:10:47;96931.25;;;12.88
75658;BMP280;64255;49.892;17.884;2023-03-14T13:13:25;96932.91;;;12.78
75658;BMP280;64255;49.892;17.884;2023-03-14T13:16:00;96932.91;;;12.78
75658;BMP280;64255;49.892;17.884;2023-03-14T13:18:40;96942.94;;;12.50
75658;BMP280;64255;49.892;17.884;2023-03-14T13:21:25;96960.88;;;12.42
75658;BMP280;64255;49.892;17.884;2023-03-14T13:24:07;96961.22;;;12.19
75658;BMP280;64255;49.892;17.884;2023-03-14T13:26:45;96949.22;;;12.40
75658;BMP280;64255;49.892;17.884;2023-03-14T13:29:22;96954.16;;;12.35
75658;BMP280;64255;49.892;17.884;2023-03-14T13:31:58;96955.63;;;12.36
75658;BMP280;64255;49.892;17.884;2023-03-14T13:34:31;96946.94;;;12.30
75658;BMP280;64255;49.892;17.884;2023-03-14T13:36:59;96952.84;;;12.42
75658;BMP280;64255;49.892;17.884;2023-03-14T13:39:28;96949.38;;;12.28
75658;BMP280;64255;49.892;17.884;2023-03-14T13:42:00;96949.78;;;12.19
75658;BMP280;64255;49.892;17.884;2023-03-14T13:44:36;96942.38;;;12.25
75658;BMP280;64255;49.892;17.884;2023-03-14T13:47:11;96953.63;;;12.24
75658;BMP280;64255;49.892;17.884;2023-03-14T13:49:40;96950.88;;;12.43
75658;BMP280;64255;49.892;17.884;2023-03-14T13:52:30;96941.06;;;12.45
75658;BMP280;64255;49.892;17.884;2023-03-14T13:55:00;96948.41;;;12.58
75658;BMP280;64255;49.892;17.884;2023-03-14T13:57:28;96961.09;;;12.58
75658;BMP280;64255;49.892;17.884;2023-03-14T14:00:20;96953.78;;;12.58
75658;BMP280;64255;49.892;17.884;2023-03-14T14:02:48;96956.13;;;12.48
75658;BMP280;64255;49.892;17.884;2023-03-14T14:05:16;96948.78;;;12.22
75658;BMP280;64255;49.892;17.884;2023-03-14T14:07:44;96958.06;;;12.21
75658;BMP280;64255;49.892;17.884;2023-03-14T14:10:14;96953.16;;;12.06
75658;BMP280;64255;49.892;17.884;2023-03-14T14:12:49;96957.38;;;12.01
75658;BMP280;64255;49.892;17.884;2023-03-14T14:15:29;96948.16;;;11.97
75658;BMP280;64255;49.892;17.884;2023-03-14T14:18:08;96942.31;;;11.98
75658;BMP280;64255;49.892;17.884;2023-03-14T14:20:43;96933.38;;;12.09
75658;BMP280;64255;49.892;17.884;2023-03-14T14:23:19;96932.19;;;12.04
75658;BMP280;64255;49.892;17.884;2023-03-14T14:25:49;96934.59;;;11.95
75658;BMP280;64255;49.892;17.884;2023-03-14T14:28:34;96926.84;;;12.04
75658;BMP280;64255;49.892;17.884;2023-03-14T14:31:21;96926.59;;;11.89
75658;BMP280;64255;49.892;17.884;2023-03-14T14:34:03;96926.59;;;11.89
75658;BMP280;64255;49.892;17.884;2023-03-14T14:36:40;96922.66;;;11.77
75658;BMP280;64255;49.892;17.884;2023-03-14T14:39:21;96922.84;;;11.79
75658;BMP280;64255;49.892;17.884;2023-03-14T14:41:52;96926.50;;;11.62
75658;BMP280;64255;49.892;17.884;2023-03-14T14:44:30;96911.41;;;11.78
75658;BMP280;64255;49.892;17.884;2023-03-14T14:46:58;96900.78;;;11.73
75658;BMP280;64255;49.892;17.884;2023-03-14T14:49:31;96857.34;;;11.74
75658;BMP280;64255;49.892;17.884;2023-03-14T14:52:39;96845.09;;;11.65
75658;BMP280;64255;49.892;17.884;2023-03-14T14:55:18;96867.16;;;11.71
75658;BMP280;64255;49.892;17.884;2023-03-14T14:57:55;96882.09;;;11.67
75658;BMP280;64255;49.892;17.884;2023-03-14T15:00:27;96881.84;;;11.84
75658;BMP280;64255;49.892;17.884;2023-03-14T15:03:03;96883.06;;;11.83
75658;BMP280;64255;49.892;17.884;2023-03-14T15:05:30;96889.78;;;11.90
75658;BMP280;64255;49.892;17.884;2023-03-14T15:07:57;96887.66;;;11.88
75658;BMP280;64255;49.892;17.884;2023-03-14T15:10:25;96885.97;;;11.85
75658;BMP280;64255;49.892;17.884;2023-03-14T15:12:52;96881.84;;;11.84
75658;BMP280;64255;49.892;17.884;2023-03-14T15:15:20;96884.97;;;11.88
75658;BMP280;64255;49.892;17.884;2023-03-14T15:17:48;96884.22;;;11.87